Time;durP1;ratioP1;P1;durP2;ratioP2;P2;SDS_P1;SDS_P2;PMS_P1;PMS_P2;Temp;Humidity;BMP_temperature;BMP_pressure;BME280_temperature;BME280_humidity;BME280_pressure;Samples;Min_cycle;Max_cycle;Signal;HPM_P1;HPM_P2
2022/12/23 00:00:17;;;;;;;136.00;74.15;;;128.40;2252.80;;;;;;4937364;29;20028;-84
2022/12/23 00:02:43;;;;;;;129.60;75.03;;;128.50;2252.80;;;;;;4919926;29;20126;-85
2022/12/23 00:05:09;;;;;;;142.25;81.68;;;128.60;2252.80;;;;;;4919665;29;20071;-86
2022/12/23 00:07:35;;;;;;;123.60;72.40;;;128.60;2252.80;;;;;;4919618;29;20115;-88
2022/12/23 00:10:01;;;;;;;109.55;64.50;;;128.60;2252.80;;;;;;4902952;29;20115;-88
2022/12/23 00:15:12;;;;;;;122.22;65.68;;;128.60;2252.80;;;;;;4919151;29;20399;-89
2022/12/23 00:17:43;;;;;;;121.95;65.57;;;128.70;2252.80;;;;;;4904867;29;20035;-89
2022/12/23 00:20:12;;;;;;;124.15;70.55;;;128.60;2252.80;;;;;;4904631;29;20059;-88
2022/12/23 00:25:39;;;;;;;109.95;61.35;;;128.60;2252.80;;;;;;4921370;29;20043;-88
2022/12/23 00:28:16;;;;;;;115.68;64.10;;;128.60;2252.80;;;;;;4904424;29;20031;-87
2022/12/23 00:30:51;;;;;;;150.35;80.45;;;128.60;2252.80;;;;;;4904522;29;20031;-86
2022/12/23 00:33:22;;;;;;;101.45;58.95;;;128.60;2252.80;;;;;;4904460;29;20068;-87
2022/12/23 00:35:49;;;;;;;105.78;57.55;;;128.50;2252.80;;;;;;4904129;29;20115;-88
2022/12/23 00:38:15;;;;;;;101.55;57.85;;;128.60;2252.80;;;;;;4904333;29;20035;-88
2022/12/23 00:43:26;;;;;;;135.63;77.47;;;128.60;2252.80;;;;;;4921090;29;20047;-89
2022/12/23 00:45:52;;;;;;;178.73;100.43;;;128.60;2252.80;;;;;;4903830;29;20055;-88
2022/12/23 00:51:02;;;;;;;189.05;110.50;;;128.80;2252.80;;;;;;4921017;29;20392;-88
2022/12/23 00:53:29;;;;;;;176.27;102.47;;;128.70;2252.80;;;;;;4903825;29;20048;-87
2022/12/23 00:55:55;;;;;;;184.07;106.15;;;128.60;2252.80;;;;;;4903822;29;20085;-88
2022/12/23 00:58:21;;;;;;;187.52;104.85;;;128.70;2252.80;;;;;;4904098;29;20115;-89
2022/12/23 01:06:16;;;;;;;172.30;91.38;;;128.80;2252.80;;;;;;4920870;29;20031;-88
2022/12/23 01:08:42;;;;;;;140.43;80.10;;;128.80;2252.80;;;;;;4903756;29;20032;-88
2022/12/23 01:11:11;;;;;;;134.63;77.05;;;128.80;2252.80;;;;;;4903572;29;20377;-86
2022/12/23 01:13:37;;;;;;;122.07;70.45;;;128.80;2252.80;;;;;;4906293;29;20032;-88
2022/12/23 01:16:06;;;;;;;124.82;70.75;;;128.70;2252.80;;;;;;4921125;29;20038;-87
2022/12/23 01:18:33;;;;;;;137.02;77.07;;;128.80;2252.80;;;;;;4921503;29;20115;-88
2022/12/23 01:21:05;;;;;;;161.95;91.22;;;153.60;2252.80;;;;;;4921091;29;20034;-88
2022/12/23 01:23:32;;;;;;;165.48;99.03;;;128.70;2252.80;;;;;;4922442;29;20055;-88
2022/12/23 01:25:59;;;;;;;156.65;86.10;;;128.70;2252.80;;;;;;4921566;29;20519;-87
2022/12/23 01:28:26;;;;;;;142.25;85.30;;;128.80;2252.80;;;;;;4921945;29;20114;-85
2022/12/23 01:30:52;;;;;;;138.75;77.38;;;128.80;2252.80;;;;;;4921871;29;20543;-88
2022/12/23 01:33:18;;;;;;;144.15;87.63;;;128.70;2252.80;;;;;;4921757;29;20143;-89
2022/12/23 01:35:44;;;;;;;119.00;72.50;;;128.70;2252.80;;;;;;4922349;29;20539;-87
2022/12/23 01:38:10;;;;;;;128.68;74.55;;;128.70;2252.80;;;;;;4922082;29;20024;-87
2022/12/23 01:40:38;;;;;;;138.88;74.90;;;128.60;2252.80;;;;;;4922177;29;20468;-88
2022/12/23 01:43:04;;;;;;;133.55;75.93;;;128.60;2252.80;;;;;;4922041;29;20123;-88
2022/12/23 01:45:31;;;;;;;139.20;76.90;;;128.70;2252.80;;;;;;4921478;29;20464;-88
2022/12/23 01:47:57;;;;;;;131.25;73.00;;;128.60;2252.80;;;;;;4922116;29;20059;-87
2022/12/23 01:50:35;;;;;;;105.63;59.05;;;128.50;2252.80;;;;;;4921974;29;20062;-88
2022/12/23 01:53:10;;;;;;;119.80;67.68;;;128.50;2252.80;;;;;;4921602;29;20036;-86
2022/12/23 01:55:41;;;;;;;145.40;84.13;;;128.60;2252.80;;;;;;4921702;29;20107;-87
2022/12/23 01:58:12;;;;;;;135.93;81.72;;;128.60;2252.80;;;;;;4922009;29;20028;-87
2022/12/23 02:09:17;;;;;;;114.97;68.72;;;128.50;2252.80;;;;;;4938868;29;20499;-87
2022/12/23 02:12:30;;;;;;;113.93;70.05;;;128.50;2252.80;;;;;;4921549;29;20042;-87
2022/12/23 02:18:12;;;;;;;119.50;68.28;;;128.50;2252.80;;;;;;4938539;29;20080;-88
2022/12/23 02:20:50;;;;;;;129.23;77.03;;;128.40;2252.80;;;;;;4921003;29;20027;-88
2022/12/23 02:23:59;;;;;;;124.53;72.70;;;128.40;2252.80;;;;;;4935744;29;20038;-89
2022/12/23 02:33:25;;;;;;;158.43;93.15;;;128.50;2252.80;;;;;;4937787;29;20396;-87
2022/12/23 02:36:18;;;;;;;180.02;97.47;;;128.50;2252.80;;;;;;4920560;29;20110;-87
2022/12/23 02:39:16;;;;;;;183.07;101.28;;;128.40;2252.80;;;;;;4936126;29;20480;-88
2022/12/23 02:41:52;;;;;;;170.30;95.22;;;128.50;2252.80;;;;;;4919934;29;20392;-87
2022/12/23 02:44:56;;;;;;;140.15;79.13;;;128.40;2252.80;;;;;;4920925;29;20038;-87
2022/12/23 02:47:29;;;;;;;117.70;67.63;;;128.40;2252.80;;;;;;4838350;29;20068;-88
2022/12/23 02:49:58;;;;;;;126.00;76.68;;;128.50;2252.80;;;;;;4920772;29;20024;-88
2022/12/23 02:52:30;;;;;;;124.93;70.38;;;128.50;2252.80;;;;;;4936718;29;20050;-88
2022/12/23 02:55:00;;;;;;;128.77;70.72;;;128.40;2252.80;;;;;;4920793;29;20384;-88
2022/12/23 02:57:33;;;;;;;136.13;77.68;;;128.40;2252.80;;;;;;4920776;29;20047;-88
2022/12/23 03:00:02;;;;;;;111.15;66.22;;;128.40;2252.80;;;;;;4920733;29;20028;-88
2022/12/23 03:02:31;;;;;;;104.00;58.60;;;128.40;2252.80;;;;;;4920528;29;20055;-88
2022/12/23 03:04:57;;;;;;;94.25;55.75;;;128.40;2252.80;;;;;;4920506;29;20024;-88
2022/12/23 03:07:30;;;;;;;98.15;52.70;;;128.50;2252.80;;;;;;4920601;29;20039;-90
2022/12/23 03:10:14;;;;;;;104.82;57.83;;;128.50;2252.80;;;;;;4940833;28;20015;-84
2022/12/23 03:12:40;;;;;;;123.55;71.45;;;128.50;2252.80;;;;;;4943806;28;20063;-89
2022/12/23 03:15:42;;;;;;;129.90;74.53;;;128.40;2252.80;;;;;;4920455;29;20051;-87
2022/12/23 03:18:31;;;;;;;123.05;72.78;;;128.40;2252.80;;;;;;4920258;29;20034;-89
2022/12/23 03:21:06;;;;;;;138.00;83.85;;;128.50;2252.80;;;;;;4900931;29;20122;-86
2022/12/23 03:23:50;;;;;;;120.78;68.65;;;128.40;2252.80;;;;;;4919944;29;20504;-86
2022/12/23 03:26:26;;;;;;;101.03;61.92;;;128.40;2252.80;;;;;;4920029;29;20485;-86
2022/12/23 03:28:54;;;;;;;82.30;49.58;;;128.40;2252.80;;;;;;4916729;29;20035;-87
2022/12/23 03:31:32;;;;;;;83.28;48.28;;;128.40;2252.80;;;;;;4919283;29;20035;-86
2022/12/23 03:34:09;;;;;;;90.45;50.50;;;128.40;2252.80;;;;;;4918898;29;20024;-86
2022/12/23 03:36:40;;;;;;;84.43;48.70;;;128.40;2252.80;;;;;;4919309;29;20019;-89
2022/12/23 03:39:12;;;;;;;78.20;48.03;;;128.40;2252.80;;;;;;4919766;29;20511;-87
2022/12/23 03:41:42;;;;;;;88.82;49.70;;;128.40;2252.80;;;;;;4920199;29;20179;-88
2022/12/23 03:44:14;;;;;;;85.95;48.92;;;128.40;2252.80;;;;;;4920194;29;20031;-88
2022/12/23 03:46:45;;;;;;;77.90;45.72;;;128.30;2252.80;;;;;;4919807;29;20047;-88
2022/12/23 03:49:19;;;;;;;81.80;48.25;;;128.40;2252.80;;;;;;4919290;29;20027;-88
2022/12/23 03:51:51;;;;;;;85.90;50.13;;;128.40;2252.80;;;;;;4919809;29;20035;-86
2022/12/23 03:54:24;;;;;;;76.18;47.95;;;128.40;2252.80;;;;;;4920071;29;20079;-87
2022/12/23 03:56:56;;;;;;;84.75;45.95;;;128.40;2252.80;;;;;;4920229;29;20050;-89
2022/12/23 03:59:29;;;;;;;85.72;46.75;;;128.40;2252.80;;;;;;4917873;29;20126;-85
2022/12/23 04:02:25;;;;;;;83.57;46.85;;;128.50;2252.80;;;;;;4919189;29;20028;-86
2022/12/23 04:05:16;;;;;;;74.60;46.08;;;128.50;2252.80;;;;;;4919046;29;20059;-88
2022/12/23 04:07:53;;;;;;;77.30;46.35;;;128.40;2252.80;;;;;;4919569;29;20028;-87
2022/12/23 04:10:21;;;;;;;78.78;45.72;;;128.50;2252.80;;;;;;4919637;29;20024;-87
2022/12/23 04:12:47;;;;;;;80.65;47.55;;;128.50;2252.80;;;;;;4919190;29;20034;-88
2022/12/23 04:15:19;;;;;;;87.20;49.60;;;128.50;2252.80;;;;;;4932425;29;20046;-89
2022/12/23 04:17:44;;;;;;;89.35;55.05;;;128.50;2252.80;;;;;;4918777;29;20063;-87
2022/12/23 04:20:10;;;;;;;96.40;54.22;;;128.50;2252.80;;;;;;4919028;29;20106;-86
2022/12/23 04:22:36;;;;;;;84.00;52.00;;;128.50;2252.80;;;;;;4919198;29;20110;-88
2022/12/23 04:25:02;;;;;;;85.05;48.58;;;128.50;2252.80;;;;;;4919588;29;20038;-88
2022/12/23 04:27:28;;;;;;;80.00;47.15;;;128.50;2252.80;;;;;;4919304;29;20028;-88
2022/12/23 04:29:54;;;;;;;79.40;48.67;;;128.50;2252.80;;;;;;4919432;29;20030;-88
2022/12/23 04:32:19;;;;;;;80.25;49.45;;;128.60;2252.80;;;;;;4919487;29;20494;-88
2022/12/23 04:34:45;;;;;;;89.90;52.65;;;128.60;2252.80;;;;;;4919165;29;20055;-85
2022/12/23 04:37:11;;;;;;;83.38;50.80;;;128.60;2252.80;;;;;;4916365;29;20042;-87
2022/12/23 04:39:37;;;;;;;88.55;54.10;;;128.60;2252.80;;;;;;4918866;29;20027;-86
2022/12/23 04:42:03;;;;;;;105.38;59.70;;;128.60;2252.80;;;;;;4918084;29;20031;-87
2022/12/23 04:44:28;;;;;;;102.47;59.20;;;128.50;2252.80;;;;;;4919272;29;20035;-85
2022/12/23 04:46:54;;;;;;;90.55;54.50;;;128.60;2252.80;;;;;;4919046;29;20107;-87
2022/12/23 04:49:20;;;;;;;86.93;53.03;;;128.60;2252.80;;;;;;4919462;29;20036;-88
2022/12/23 04:51:46;;;;;;;92.93;55.20;;;128.60;2252.80;;;;;;4919319;29;20488;-88
2022/12/23 04:54:12;;;;;;;99.20;57.83;;;128.60;2252.80;;;;;;4919145;29;20056;-85
2022/12/23 04:56:37;;;;;;;90.88;54.92;;;128.70;2252.80;;;;;;4919185;29;20035;-86
2022/12/23 04:59:03;;;;;;;94.53;54.30;;;128.60;2252.80;;;;;;4919326;29;20067;-88
2022/12/23 05:01:29;;;;;;;105.10;60.47;;;128.70;2252.80;;;;;;4920814;29;20063;-88
2022/12/23 05:03:55;;;;;;;162.73;85.00;;;128.70;2252.80;;;;;;4922842;29;20380;-88
2022/12/23 05:06:21;;;;;;;177.52;99.38;;;128.70;2252.80;;;;;;4922760;29;20030;-89
2022/12/23 05:08:46;;;;;;;172.07;91.43;;;128.70;2252.80;;;;;;4922607;29;20055;-89
2022/12/23 05:11:12;;;;;;;186.95;104.90;;;128.70;2252.80;;;;;;4922602;29;20535;-87
2022/12/23 05:13:38;;;;;;;191.95;107.32;;;128.80;2252.80;;;;;;4922753;29;20043;-88
2022/12/23 05:16:04;;;;;;;183.93;104.03;;;128.80;2252.80;;;;;;4922261;29;20023;-88
2022/12/23 05:18:30;;;;;;;172.38;97.78;;;128.70;2252.80;;;;;;4922513;29;20041;-89
2022/12/23 05:20:56;;;;;;;185.63;103.90;;;128.80;2252.80;;;;;;4922397;29;20468;-88
2022/12/23 05:23:21;;;;;;;178.20;104.47;;;128.80;2252.80;;;;;;4922273;29;20039;-89
2022/12/23 05:25:52;;;;;;;188.32;106.45;;;128.80;2252.80;;;;;;4922394;29;20028;-88
2022/12/23 05:28:19;;;;;;;206.15;117.07;;;128.80;2252.80;;;;;;4922494;29;20027;-89
2022/12/23 05:30:44;;;;;;;218.55;122.47;;;128.80;2252.80;;;;;;4938141;29;20463;-88
2022/12/23 05:33:10;;;;;;;214.85;122.53;;;128.80;2252.80;;;;;;4922366;29;20066;-87
2022/12/23 05:35:36;;;;;;;188.68;114.55;;;128.80;2252.80;;;;;;4922240;29;20048;-87
2022/12/23 05:38:02;;;;;;;191.60;113.65;;;128.80;2252.80;;;;;;4922358;29;20032;-88
2022/12/23 05:40:31;;;;;;;190.40;111.50;;;128.80;2252.80;;;;;;4922417;29;20035;-87
2022/12/23 05:42:58;;;;;;;193.18;116.60;;;128.80;2252.80;;;;;;4922075;29;20154;-88
2022/12/23 05:45:24;;;;;;;197.85;114.15;;;128.80;2252.80;;;;;;4921918;29;20397;-89
2022/12/23 05:47:49;;;;;;;196.38;118.20;;;128.80;2252.80;;;;;;4922517;29;20072;-87
2022/12/23 05:50:15;;;;;;;176.10;109.68;;;128.80;2252.80;;;;;;4922463;29;20023;-89
2022/12/23 05:52:41;;;;;;;175.30;104.22;;;128.80;2252.80;;;;;;4931827;29;20039;-88
2022/12/23 05:55:07;;;;;;;172.38;107.38;;;128.80;2252.80;;;;;;4922248;29;20472;-89
2022/12/23 05:57:33;;;;;;;177.70;113.40;;;128.70;2252.80;;;;;;4939045;29;20164;-87
2022/12/23 05:59:59;;;;;;;175.10;110.75;;;128.90;2252.80;;;;;;4922431;29;20464;-89
2022/12/23 06:02:25;;;;;;;186.35;118.60;;;128.90;2252.80;;;;;;4921511;29;20034;-88
2022/12/23 06:04:50;;;;;;;222.27;138.02;;;128.80;2252.80;;;;;;4921730;29;20051;-88
2022/12/23 06:07:16;;;;;;;191.40;117.47;;;128.80;2252.80;;;;;;4922247;29;20032;-88
2022/12/23 06:09:42;;;;;;;185.75;116.80;;;128.80;2252.80;;;;;;4922925;29;20035;-88
2022/12/23 06:12:08;;;;;;;220.40;129.02;;;128.80;2252.80;;;;;;4920841;29;20047;-87
2022/12/23 06:14:34;;;;;;;307.85;173.90;;;128.90;2252.80;;;;;;4921854;29;20460;-89
2022/12/23 06:16:59;;;;;;;266.52;153.48;;;128.70;2252.80;;;;;;4921525;29;20032;-89
2022/12/23 06:19:26;;;;;;;179.07;107.22;;;128.70;2252.80;;;;;;4921479;29;20354;-87
2022/12/23 06:21:51;;;;;;;218.90;119.55;;;128.80;2252.80;;;;;;4921448;29;20063;-89
2022/12/23 06:24:17;;;;;;;251.82;134.43;;;128.80;2252.80;;;;;;4921712;29;20039;-88
2022/12/23 06:26:43;;;;;;;219.30;122.00;;;128.80;2252.80;;;;;;4921246;29;20063;-87
2022/12/23 06:29:10;;;;;;;190.15;111.78;;;128.80;2252.80;;;;;;4921381;29;20036;-87
2022/12/23 06:31:36;;;;;;;175.30;102.28;;;128.80;2252.80;;;;;;4921237;29;20028;-87
2022/12/23 06:34:02;;;;;;;209.48;117.78;;;128.90;2252.80;;;;;;4921461;29;20049;-86
2022/12/23 06:36:27;;;;;;;177.48;100.45;;;128.80;2252.80;;;;;;4921286;29;20460;-88
2022/12/23 06:38:53;;;;;;;164.75;96.63;;;128.90;2252.80;;;;;;4920913;29;20027;-87
2022/12/23 06:41:19;;;;;;;134.15;81.00;;;128.90;2252.80;;;;;;4921009;29;20036;-87
2022/12/23 06:43:45;;;;;;;120.43;72.70;;;128.80;2252.80;;;;;;4921057;29;20083;-87
2022/12/23 06:46:11;;;;;;;116.00;72.13;;;128.80;2252.80;;;;;;4920429;29;20047;-87
2022/12/23 06:48:36;;;;;;;140.10;87.50;;;128.80;2252.80;;;;;;4936833;29;20416;-88
2022/12/23 06:51:02;;;;;;;139.48;78.07;;;128.80;2252.80;;;;;;4920701;29;20031;-89
2022/12/23 06:53:28;;;;;;;189.43;113.60;;;128.80;2252.80;;;;;;4920444;29;20038;-87
2022/12/23 06:56:02;;;;;;;130.98;84.85;;;128.70;2252.80;;;;;;4920724;29;20027;-87
2022/12/23 06:58:28;;;;;;;153.30;94.70;;;128.70;2252.80;;;;;;4920754;29;20032;-88
2022/12/23 07:00:54;;;;;;;140.55;90.07;;;128.80;2252.80;;;;;;4920531;29;20384;-87
2022/12/23 07:03:20;;;;;;;134.75;84.82;;;128.80;2252.80;;;;;;4920725;29;20032;-87
2022/12/23 07:05:50;;;;;;;114.75;72.68;;;128.80;2252.80;;;;;;4920754;29;20020;-87
2022/12/23 07:08:17;;;;;;;113.20;71.93;;;128.80;2252.80;;;;;;4920269;29;20031;-88
2022/12/23 07:10:43;;;;;;;130.27;85.97;;;128.90;2252.80;;;;;;4920754;29;20167;-87
2022/12/23 07:13:09;;;;;;;135.68;83.72;;;128.90;2252.80;;;;;;4919941;29;20135;-88
2022/12/23 07:15:36;;;;;;;109.47;73.43;;;128.90;2252.80;;;;;;4908322;29;20127;-89
2022/12/23 07:18:02;;;;;;;148.95;91.38;;;153.60;2252.80;;;;;;4900789;29;20384;-87
2022/12/23 07:20:28;;;;;;;151.25;94.40;;;153.60;2252.80;;;;;;4901103;29;20385;-88
2022/12/23 07:22:54;;;;;;;175.43;117.25;;;153.70;2252.80;;;;;;4901451;29;20064;-87
2022/12/23 07:25:20;;;;;;;175.60;116.10;;;153.70;2252.80;;;;;;4901257;29;20487;-89
2022/12/23 07:27:46;;;;;;;176.57;114.60;;;153.80;2252.80;;;;;;4901370;29;20032;-87
2022/12/23 07:30:12;;;;;;;145.13;92.82;;;153.80;2252.80;;;;;;4901387;29;20083;-88
2022/12/23 07:32:37;;;;;;;123.07;82.30;;;153.90;2252.80;;;;;;4901324;29;20044;-89
2022/12/23 07:35:04;;;;;;;111.88;73.03;;;153.90;2252.80;;;;;;4900921;29;20115;-89
2022/12/23 07:37:29;;;;;;;102.78;64.22;;;154.00;2252.80;;;;;;4901022;29;20404;-88
2022/12/23 07:39:55;;;;;;;88.63;60.17;;;154.00;2252.80;;;;;;4901106;29;20028;-88
2022/12/23 07:42:21;;;;;;;102.97;61.63;;;154.00;2252.80;;;;;;4901031;29;20036;-88
2022/12/23 07:44:47;;;;;;;92.85;58.40;;;154.00;2252.80;;;;;;4900339;29;20429;-86
2022/12/23 07:47:14;;;;;;;83.95;54.78;;;154.10;2252.80;;;;;;4900654;29;20079;-87
2022/12/23 07:49:40;;;;;;;90.00;56.70;;;154.10;2252.80;;;;;;4899774;29;20032;-86
2022/12/23 07:52:05;;;;;;;82.55;53.30;;;154.10;2252.80;;;;;;4900310;29;20079;-89
2022/12/23 07:54:31;;;;;;;92.60;62.30;;;154.10;2252.80;;;;;;4901026;29;20385;-88
2022/12/23 07:56:57;;;;;;;96.03;61.17;;;154.20;2252.80;;;;;;4900825;29;20516;-88
2022/12/23 07:59:25;;;;;;;104.40;64.22;;;154.20;2252.80;;;;;;4900855;29;20035;-90
2022/12/23 08:01:52;;;;;;;100.72;65.85;;;154.30;2252.80;;;;;;4902964;29;20111;-88
2022/12/23 08:04:17;;;;;;;107.13;66.25;;;154.30;2252.80;;;;;;4919738;29;20035;-89
2022/12/23 08:06:43;;;;;;;122.32;75.38;;;154.30;2252.80;;;;;;4919755;29;20437;-89
2022/12/23 08:09:10;;;;;;;118.32;78.53;;;154.40;2252.80;;;;;;4920292;29;20098;-88
2022/12/23 08:11:36;;;;;;;122.65;76.85;;;154.40;2252.80;;;;;;4919645;29;20456;-87
2022/12/23 08:14:02;;;;;;;127.55;88.00;;;154.50;2252.80;;;;;;4919876;29;20032;-88
2022/12/23 08:16:27;;;;;;;102.88;69.72;;;154.50;2252.80;;;;;;4927517;28;20016;-88
2022/12/23 08:18:53;;;;;;;85.72;57.40;;;179.30;2022.40;;;;;;4944071;29;20084;-86
2022/12/23 08:21:19;;;;;;;67.60;45.63;;;179.30;2252.80;;;;;;4933714;29;20049;-83
2022/12/23 08:23:46;;;;;;;92.53;60.25;;;179.30;2252.80;;;;;;4899933;29;20016;-87
2022/12/23 08:26:20;;;;;;;72.22;45.10;;;179.40;2252.80;;;;;;4900105;29;20035;-85
2022/12/23 08:28:47;;;;;;;98.07;58.97;;;179.50;2252.80;;;;;;4915271;29;20640;-82
2022/12/23 08:31:20;;;;;;;78.80;47.22;;;179.50;2048.00;;;;;;4900310;29;20032;-84
2022/12/23 08:33:48;;;;;;;59.45;38.05;;;179.60;2252.80;;;;;;4900464;29;20039;-87
2022/12/23 08:36:18;;;;;;;76.05;47.85;;;179.60;2252.80;;;;;;4902061;29;20035;-86
2022/12/23 08:38:44;;;;;;;88.82;52.28;;;179.60;2252.80;;;;;;4920048;29;20063;-81
2022/12/23 08:41:13;;;;;;;63.15;39.22;;;179.70;2252.80;;;;;;4923134;29;20040;-84
2022/12/23 08:43:39;;;;;;;75.35;49.25;;;179.80;2252.80;;;;;;4922386;29;20083;-83
2022/12/23 08:46:06;;;;;;;65.30;41.85;;;179.90;2252.80;;;;;;4922143;29;20545;-83
2022/12/23 08:48:33;;;;;;;74.70;49.05;;;180.00;2252.80;;;;;;4922568;29;20038;-87
2022/12/23 08:51:06;;;;;;;58.25;42.42;;;180.00;2252.80;;;;;;4922430;29;20439;-86
2022/12/23 08:53:34;;;;;;;54.72;35.60;;;180.00;2252.80;;;;;;4922300;29;20032;-84
2022/12/23 08:56:05;;;;;;;48.35;33.60;;;180.00;2252.80;;;;;;4922501;29;20032;-82
2022/12/23 08:58:35;;;;;;;60.00;33.53;;;180.00;2252.80;;;;;;4919835;29;20087;-87
2022/12/23 09:01:06;;;;;;;58.25;39.67;;;180.00;2252.80;;;;;;4922663;29;20035;-85
2022/12/23 09:03:33;;;;;;;44.72;29.83;;;180.10;2252.80;;;;;;4922137;29;20412;-85
2022/12/23 09:06:04;;;;;;;48.88;30.95;;;180.10;2252.80;;;;;;4921860;29;20106;-86
2022/12/23 09:08:30;;;;;;;44.28;28.63;;;204.80;2252.80;;;;;;4922524;29;20031;-86
2022/12/23 09:10:56;;;;;;;78.55;58.28;;;204.80;2252.80;;;;;;4922502;29;20552;-83
2022/12/23 09:13:22;;;;;;;70.72;49.90;;;204.80;2252.80;;;;;;4921415;29;20507;-85
2022/12/23 09:15:48;;;;;;;58.67;38.95;;;;;;;;;;4925289;29;20040;-85
2022/12/23 09:18:13;;;;;;;52.13;33.83;;;205.20;2252.80;;;;;;4921365;29;20408;-86
2022/12/23 09:20:39;;;;;;;61.15;35.53;;;205.10;2252.80;;;;;;4921414;29;20043;-86
2022/12/23 09:23:05;;;;;;;55.83;36.38;;;205.10;2252.80;;;;;;4938950;29;20024;-88
2022/12/23 09:25:32;;;;;;;44.40;30.00;;;205.20;2252.80;;;;;;4922009;29;20050;-88
2022/12/23 09:27:58;;;;;;;47.30;31.38;;;205.30;2252.80;;;;;;4921354;29;20077;-85
2022/12/23 09:30:24;;;;;;;49.88;31.65;;;;;;;;;;4921670;29;20039;-86
2022/12/23 09:32:50;;;;;;;51.58;31.42;;;205.50;2252.80;;;;;;4921931;29;20122;-89
2022/12/23 09:35:16;;;;;;;50.05;34.08;;;205.40;2252.80;;;;;;4921333;29;20059;-87
2022/12/23 09:37:42;;;;;;;48.10;32.38;;;205.40;2252.80;;;;;;4921699;29;20127;-88
2022/12/23 09:40:12;;;;;;;54.38;36.08;;;205.40;2252.80;;;;;;4922032;29;20039;-81
2022/12/23 09:42:44;;;;;;;68.43;36.47;;;205.40;2252.80;;;;;;4921577;29;20481;-85
2022/12/23 09:45:22;;;;;;;59.45;37.50;;;205.40;2252.80;;;;;;4916979;29;20056;-82
2022/12/23 09:47:49;;;;;;;56.50;38.88;;;205.50;2252.80;;;;;;4901051;29;20039;-83
2022/12/23 09:50:27;;;;;;;60.63;41.38;;;205.60;2252.80;;;;;;4917069;29;20110;-83
2022/12/23 09:53:04;;;;;;;58.08;37.03;;;205.60;2252.80;;;;;;4920853;29;20064;-85
2022/12/23 09:55:45;;;;;;;53.83;36.80;;;205.70;2252.80;;;;;;4918381;29;20460;-86
2022/12/23 09:58:26;;;;;;;53.25;33.83;;;205.60;2252.80;;;;;;4931383;29;20488;-84
2022/12/23 10:01:14;;;;;;;129.10;53.90;;;205.70;2252.80;;;;;;4921356;29;20030;-87
2022/12/23 10:04:05;;;;;;;169.45;71.40;;;205.60;2252.80;;;;;;4934894;29;20122;-86
2022/12/23 10:06:33;;;;;;;143.30;63.00;;;205.70;2252.80;;;;;;4921624;29;20052;-85
2022/12/23 10:09:04;;;;;;;102.13;52.50;;;205.60;2252.80;;;;;;4921249;29;20028;-82
2022/12/23 10:11:50;;;;;;;114.22;61.25;;;205.50;2252.80;;;;;;4921130;29;20123;-84
2022/12/23 10:14:27;;;;;;;99.60;51.10;;;205.70;2252.80;;;;;;4920929;29;20087;-82
2022/12/23 10:17:01;;;;;;;115.07;56.90;;;230.40;2252.80;;;;;;4919194;29;20384;-85
2022/12/23 10:19:32;;;;;;;100.25;53.17;;;205.70;2252.80;;;;;;4934107;29;20087;-80
2022/12/23 10:22:05;;;;;;;66.70;40.53;;;230.50;2252.80;;;;;;4934404;29;20051;-85
2022/12/23 10:24:49;;;;;;;57.92;36.78;;;230.60;2252.80;;;;;;4920835;29;20028;-85
2022/12/23 10:27:23;;;;;;;58.10;37.15;;;230.80;2252.80;;;;;;4920741;29;20499;-83
2022/12/23 10:29:49;;;;;;;53.72;33.15;;;230.90;2252.80;;;;;;4918493;29;20032;-88
2022/12/23 10:32:33;;;;;;;95.18;59.47;;;231.00;2252.80;;;;;;4920622;29;20032;-85
2022/12/23 10:35:12;;;;;;;107.50;61.92;;;231.00;2252.80;;;;;;4919071;29;20032;-87
2022/12/23 10:38:07;;;;;;;109.43;61.53;;;231.10;2252.80;;;;;;4920928;29;20042;-85
2022/12/23 10:40:57;;;;;;;69.80;42.90;;;231.30;2252.80;;;;;;4920832;29;20051;-89
2022/12/23 10:43:40;;;;;;;84.45;55.80;;;;;;;;;;4920974;29;20080;-82
2022/12/23 10:46:34;;;;;;;62.88;42.88;;;256.00;2252.80;;;;;;4901800;29;20052;-84
2022/12/23 10:49:24;;;;;;;57.30;35.65;;;;;;;;;;4918364;29;20448;-85
2022/12/23 10:51:50;;;;;;;74.05;46.25;;;;;;;;;;4916846;29;20035;-86
2022/12/23 10:54:18;;;;;;;52.92;33.38;;;;;;;;;;4920501;29;20099;-86
2022/12/23 10:56:44;;;;;;;70.72;43.30;;;256.50;2252.80;;;;;;4919919;29;20028;-87
2022/12/23 10:59:14;;;;;;;48.58;32.55;;;;;;;;;;4920050;29;20024;-88
2022/12/23 11:01:40;;;;;;;72.13;46.55;;;;;;;;;;4920125;29;20027;-85
2022/12/23 11:04:14;;;;;;;59.85;39.85;;;;;;;;;;4920302;29;20024;-86
2022/12/23 11:06:42;;;;;;;52.65;32.47;;;;;;;;;;4918273;29;20072;-86
2022/12/23 11:09:14;;;;;;;72.60;46.53;;;;;;;;;;4920407;29;20034;-87
2022/12/23 11:11:53;;;;;;;51.95;33.80;;;;;;;;;;4920008;29;20395;-88
2022/12/23 11:14:29;;;;;;;48.35;32.22;;;;;;;;;;4917727;29;20027;-85
2022/12/23 11:16:55;;;;;;;37.50;25.08;;;;;;;;;;4917232;29;20020;-86
2022/12/23 11:19:22;;;;;;;52.35;33.17;;;;;;;;;;4916853;29;20540;-88
2022/12/23 11:21:56;;;;;;;38.33;24.85;;;;;;;;;;4913880;29;20032;-85
2022/12/23 11:24:22;;;;;;;49.67;29.77;;;;;;;;;;4915026;29;20396;-88
2022/12/23 11:27:00;;;;;;;42.35;26.70;;;;;;;;;;4919311;29;20130;-85
2022/12/23 11:29:31;;;;;;;46.72;29.02;;;;;;;;;;4914706;29;20016;-87
2022/12/23 11:31:57;;;;;;;49.72;34.10;;;;;;;;;;4936338;28;20026;-87
2022/12/23 11:34:25;;;;;;;52.58;33.42;;;282.30;2278.40;;;;;;4927805;29;20035;-86
2022/12/23 11:36:57;;;;;;;62.85;39.92;;;282.50;2278.40;;;;;;4919701;29;20054;-88
2022/12/23 11:39:31;;;;;;;47.23;33.27;;;282.50;2278.40;;;;;;4919882;29;20039;-85
2022/12/23 11:42:18;;;;;;;57.40;37.55;;;307.30;2304.00;;;;;;4919260;29;20034;-85
2022/12/23 11:44:49;;;;;;;51.60;35.30;;;307.70;2304.00;;;;;;4919834;29;20091;-84
2022/12/23 11:47:28;;;;;;;53.72;37.08;;;307.70;2304.00;;;;;;4919436;29;20063;-84
2022/12/23 11:50:02;;;;;;;88.95;61.60;;;307.90;2304.00;;;;;;4936094;29;20114;-83
2022/12/23 11:52:32;;;;;;;59.95;39.50;;;308.00;2304.00;;;;;;4919442;29;20457;-83
2022/12/23 11:55:02;;;;;;;46.08;31.08;;;332.90;2329.60;;;;;;4932543;29;20032;-88
2022/12/23 11:57:41;;;;;;;43.92;29.42;;;332.90;2329.60;;;;;;4919736;29;20427;-82
2022/12/23 12:00:24;;;;;;;44.00;32.67;;;333.00;2329.60;;;;;;4919786;29;20050;-84
2022/12/23 12:02:54;;;;;;;44.15;31.27;;;333.30;2329.60;;;;;;4914727;29;20160;-83
2022/12/23 12:05:24;;;;;;;47.90;30.60;;;333.40;2329.60;;;;;;4902924;29;20032;-84
2022/12/23 12:07:51;;;;;;;47.38;32.17;;;333.50;2329.60;;;;;;4919453;29;20028;-82
2022/12/23 12:10:38;;;;;;;45.85;30.50;;;333.60;2329.60;;;;;;4918060;29;20032;-81
2022/12/23 12:13:31;;;;;;;40.78;26.90;;;333.60;2329.60;;;;;;4936546;29;20031;-86
2022/12/23 12:16:06;;;;;;;;;;;358.40;2329.60;;;;;;4919926;29;20373;-83
2022/12/23 12:18:33;;;;;;;73.85;35.33;;;358.40;2329.60;;;;;;4919829;29;19907;-83
2022/12/23 12:21:04;;;;;;;49.25;34.50;;;358.50;2329.60;;;;;;4919038;29;20034;-82
2022/12/23 12:23:42;;;;;;;44.75;30.42;;;358.50;2329.60;;;;;;4919320;29;20039;-82
2022/12/23 12:26:23;;;;;;;37.85;26.02;;;358.60;2329.60;;;;;;4936217;29;20030;-83
2022/12/23 12:29:13;;;;;;;50.97;32.42;;;358.60;2329.60;;;;;;4935091;29;20058;-82
2022/12/23 12:31:44;;;;;;;55.30;34.38;;;358.60;2329.60;;;;;;4926766;29;20213;-82
2022/12/23 12:34:31;;;;;;;61.40;37.17;;;358.50;2329.60;;;;;;4919337;29;20062;-82
2022/12/23 12:37:36;;;;;;;52.65;34.80;;;358.60;2329.60;;;;;;4919135;29;20024;-79
2022/12/23 12:40:13;;;;;;;57.60;38.00;;;358.40;2329.60;;;;;;4918939;29;20118;-81
2022/12/23 12:42:46;;;;;;;61.05;34.80;;;358.40;2329.60;;;;;;4919255;29;20031;-82
2022/12/23 12:45:26;;;;;;;61.20;40.33;;;358.40;2329.60;;;;;;4918480;29;20492;-84
2022/12/23 12:48:24;;;;;;;47.45;27.35;;;358.40;2329.60;;;;;;4919449;29;20404;-83
2022/12/23 12:51:03;;;;;;;44.00;29.30;;;333.70;2329.60;;;;;;4918570;29;20035;-83
2022/12/23 12:53:31;;;;;;;51.83;35.83;;;333.70;2329.60;;;;;;4919597;29;20035;-84